createdAt,value
2019-02-21T00:00:24.197Z,94.20
2019-02-21T00:02:48.860Z,94.40
2019-02-21T00:05:17.330Z,94.40
2019-02-21T00:07:45.759Z,94.50
2019-02-21T00:10:14.175Z,94.60
2019-02-21T00:12:42.630Z,94.50
2019-02-21T00:15:30.393Z,94.60
2019-02-21T00:17:58.831Z,94.70
2019-02-21T00:20:27.253Z,94.80
2019-02-21T00:22:55.716Z,94.90
2019-02-21T00:25:24.202Z,94.80
2019-02-21T00:27:52.657Z,95.10
2019-02-21T00:30:21.070Z,95.10
2019-02-21T00:32:49.530Z,95.20
2019-02-21T00:35:17.951Z,95.30
2019-02-21T00:37:46.395Z,95.40
2019-02-21T00:40:23.504Z,95.60
2019-02-21T00:42:51.985Z,95.70
2019-02-21T00:45:39.998Z,95.90
2019-02-21T00:48:20.724Z,96.00
2019-02-21T00:50:49.144Z,96.00
2019-02-21T00:53:17.584Z,96.20
2019-02-21T00:56:05.347Z,96.40
2019-02-21T00:58:33.794Z,96.40
2019-02-21T01:01:21.565Z,96.60
2019-02-21T01:03:50.027Z,96.70
2019-02-21T01:06:37.799Z,96.80
2019-02-21T01:09:06.295Z,96.90
2019-02-21T01:11:34.750Z,97.00
2019-02-21T01:14:03.172Z,97.20
2019-02-21T01:16:31.618Z,97.30
2019-02-21T01:19:00.074Z,97.50
2019-02-21T01:21:28.551Z,97.60
2019-02-21T01:23:56.975Z,97.70
2019-02-21T01:26:38.093Z,97.80
2019-02-21T01:29:14.133Z,97.80
2019-02-21T01:32:02.005Z,97.90
2019-02-21T01:34:30.450Z,97.90
2019-02-21T01:37:18.311Z,98.10
2019-02-21T01:40:07.749Z,98.10
2019-02-21T01:42:36.701Z,98.10
2019-02-21T01:45:07.370Z,98.20
2019-02-21T01:47:35.852Z,98.30
2019-02-21T01:50:06.171Z,98.40
2019-02-21T01:52:34.755Z,98.40
2019-02-21T01:55:03.531Z,98.50
2019-02-21T01:57:51.351Z,98.60
2019-02-21T02:00:39.420Z,98.60
2019-02-21T02:03:20.229Z,98.70
2019-02-21T02:05:48.711Z,98.80
2019-02-21T02:08:17.228Z,98.90
2019-02-21T02:10:45.680Z,99.10
2019-02-21T02:13:24.170Z,99.20
2019-02-21T02:15:44.331Z,99.30
2019-02-21T02:18:32.106Z,99.30
2019-02-21T02:24:21.579Z,99.50
2019-02-21T02:27:02.784Z,99.60
2019-02-21T02:29:31.236Z,99.70
2019-02-21T02:32:11.502Z,99.80
2019-02-21T02:34:40.004Z,99.90
2019-02-21T02:37:08.442Z,99.90
2019-02-21T02:39:56.283Z,99.90
2019-02-21T02:42:44.074Z,99.90
2019-02-21T02:45:12.508Z,99.90
2019-02-21T02:48:00.312Z,99.90
2019-02-21T02:50:28.758Z,99.90
2019-02-21T02:52:57.247Z,99.90
2019-02-21T02:55:25.736Z,99.90
2019-02-21T02:57:54.158Z,99.90
2019-02-21T03:00:22.584Z,99.90
2019-02-21T03:02:51.043Z,99.90
2019-02-21T03:05:38.796Z,99.90
2019-02-21T03:08:07.236Z,99.90
2019-02-21T03:10:35.657Z,99.90
2019-02-21T03:13:04.097Z,99.90
2019-02-21T03:15:32.559Z,99.90
2019-02-21T03:18:01.140Z,99.90
2019-02-21T03:20:29.628Z,99.90
2019-02-21T03:22:58.062Z,99.90
2019-02-21T03:25:26.533Z,99.90
2019-02-21T03:27:55.004Z,99.90
2019-02-21T03:30:42.768Z,99.90
2019-02-21T03:33:11.212Z,99.90
2019-02-21T03:35:39.623Z,99.90
2019-02-21T03:38:08.081Z,99.90
2019-02-21T03:40:36.592Z,99.90
2019-02-21T03:43:17.094Z,99.90
2019-02-21T03:45:57.824Z,99.90
2019-02-21T03:48:26.360Z,99.90
2019-02-21T03:50:54.791Z,99.90
2019-02-21T03:53:23.315Z,99.90
2019-02-21T03:56:11.112Z,99.90
2019-02-21T03:58:51.776Z,99.90
2019-02-21T04:01:20.187Z,99.90
2019-02-21T04:03:48.811Z,99.90
2019-02-21T04:06:17.336Z,99.90
2019-02-21T04:09:06.653Z,99.90
2019-02-21T04:11:35.147Z,99.90
2019-02-21T04:14:23.174Z,99.90
2019-02-21T04:17:03.660Z,99.90
2019-02-21T04:19:44.432Z,99.90
2019-02-21T04:22:24.925Z,99.90
2019-02-21T04:24:53.369Z,99.90
2019-02-21T04:27:41.133Z,99.90
2019-02-21T04:30:09.583Z,99.90
2019-02-21T04:32:38.108Z,99.90
2019-02-21T04:35:06.819Z,99.90
2019-02-21T04:37:35.228Z,99.90
2019-02-21T04:40:23.008Z,99.90
2019-02-21T04:42:51.457Z,99.90
2019-02-21T04:45:19.976Z,99.90
2019-02-21T04:47:48.413Z,99.90
2019-02-21T04:50:16.832Z,99.90
2019-02-21T04:53:04.689Z,99.90
2019-02-21T04:55:33.108Z,99.90
2019-02-21T04:58:01.543Z,99.90
2019-02-21T05:00:49.336Z,99.90
2019-02-21T05:03:17.820Z,99.90
2019-02-21T05:05:46.260Z,99.90
2019-02-21T05:08:14.799Z,99.90
2019-02-21T05:10:43.207Z,99.90
2019-02-21T05:13:11.652Z,99.90
2019-02-21T05:15:40.075Z,99.90
2019-02-21T05:18:08.499Z,99.90
2019-02-21T05:20:56.299Z,99.90
2019-02-21T05:23:24.727Z,99.90
2019-02-21T05:25:53.204Z,99.90
2019-02-21T05:28:31.454Z,99.90
2019-02-21T05:31:07.432Z,99.90
2019-02-21T05:33:37.591Z,99.90
2019-02-21T05:36:10.663Z,99.90
2019-02-21T05:38:43.450Z,99.90
2019-02-21T05:41:38.615Z,99.90
2019-02-21T05:44:11.651Z,99.90
2019-02-21T05:46:41.743Z,99.90
2019-02-21T05:49:30.050Z,99.90
2019-02-21T05:52:12.532Z,99.90
2019-02-21T05:54:57.627Z,99.90
2019-02-21T06:00:19.203Z,99.90
2019-02-21T06:03:05.884Z,99.90
2019-02-21T06:06:04.307Z,99.90
2019-02-21T06:08:52.452Z,99.90
2019-02-21T06:11:38.631Z,99.90
2019-02-21T06:14:11.500Z,99.90
2019-02-21T06:16:41.572Z,99.90
2019-02-21T06:19:39.791Z,99.90
2019-02-21T06:22:12.535Z,99.90
2019-02-21T06:25:02.028Z,99.90
2019-02-21T06:30:17.035Z,99.90
2019-02-21T06:32:45.499Z,99.90
2019-02-21T06:35:33.336Z,99.90
2019-02-21T06:38:01.779Z,99.90
2019-02-21T06:40:30.248Z,99.90
2019-02-21T06:42:58.671Z,99.90
2019-02-21T06:45:27.269Z,99.90
2019-02-21T06:50:44.512Z,99.90
2019-02-21T06:53:32.348Z,99.90
2019-02-21T06:56:00.821Z,99.90
2019-02-21T06:58:29.268Z,99.90
2019-02-21T07:00:57.704Z,99.90
2019-02-21T07:03:26.166Z,99.90
2019-02-21T07:06:14.030Z,99.90
2019-02-21T07:08:42.439Z,99.90
2019-02-21T07:11:10.879Z,99.90
2019-02-21T07:13:58.669Z,99.90
2019-02-21T07:16:27.094Z,99.90
2019-02-21T07:18:55.519Z,99.90
2019-02-21T07:21:24.027Z,99.90
2019-02-21T07:23:52.477Z,99.90
2019-02-21T07:26:20.905Z,99.90
2019-02-21T07:28:49.466Z,99.90
2019-02-21T07:31:37.248Z,99.90
2019-02-21T07:34:07.041Z,99.90
2019-02-21T07:36:35.730Z,99.90
2019-02-21T07:39:16.824Z,99.90
2019-02-21T07:41:35.549Z,99.90
2019-02-21T07:44:11.740Z,99.90
2019-02-21T07:46:34.261Z,99.90
2019-02-21T07:49:02.720Z,99.90
2019-02-21T07:51:31.162Z,99.90
2019-02-21T07:53:59.603Z,99.90
2019-02-21T07:56:28.060Z,99.90
2019-02-21T07:58:57.672Z,99.90
2019-02-21T08:01:26.367Z,99.90
2019-02-21T08:03:54.812Z,99.90
2019-02-21T08:06:42.564Z,99.90
2019-02-21T08:09:22.847Z,99.90
2019-02-21T08:11:51.334Z,99.90
2019-02-21T08:14:20.658Z,99.90
2019-02-21T08:16:49.105Z,99.90
2019-02-21T08:19:17.519Z,99.90
2019-02-21T08:21:46.007Z,99.90
2019-02-21T08:24:14.592Z,99.90
2019-02-21T08:26:43.020Z,99.90
2019-02-21T08:29:11.476Z,99.90
2019-02-21T08:31:39.901Z,99.90
2019-02-21T08:34:09.967Z,99.90
2019-02-21T08:36:38.419Z,99.90
2019-02-21T08:39:08.825Z,99.90
2019-02-21T08:41:37.321Z,99.90
2019-02-21T08:44:25.105Z,99.90
2019-02-21T08:47:12.865Z,99.90
2019-02-21T08:49:41.294Z,99.90
2019-02-21T08:52:09.829Z,99.90
2019-02-21T08:54:38.344Z,99.90
2019-02-21T08:57:26.109Z,99.90
2019-02-21T08:59:54.559Z,99.90
2019-02-21T09:02:22.982Z,99.90
2019-02-21T09:04:51.485Z,99.90
2019-02-21T09:07:19.900Z,99.90
2019-02-21T09:09:48.347Z,99.90
2019-02-21T09:12:16.769Z,99.90
2019-02-21T09:14:45.215Z,99.90
2019-02-21T09:17:13.672Z,99.90
2019-02-21T09:20:01.454Z,99.90
2019-02-21T09:22:49.261Z,99.90
2019-02-21T09:25:29.927Z,99.90
2019-02-21T09:28:10.692Z,99.90
2019-02-21T09:30:51.691Z,99.90
2019-02-21T09:33:21.319Z,99.90
2019-02-21T09:35:50.261Z,99.90
2019-02-21T09:38:18.679Z,99.90
2019-02-21T09:40:47.118Z,99.90
2019-02-21T09:43:15.574Z,99.90
2019-02-21T09:45:44.010Z,99.90
2019-02-21T09:48:25.150Z,99.90
2019-02-21T09:50:53.585Z,99.90
2019-02-21T09:53:22.035Z,99.90
2019-02-21T09:56:09.818Z,99.90
2019-02-21T09:58:38.274Z,99.90
2019-02-21T10:01:06.802Z,99.90
2019-02-21T10:03:35.412Z,99.90
2019-02-21T10:06:03.990Z,99.90
2019-02-21T10:08:32.416Z,99.90
2019-02-21T10:11:01.034Z,99.90
2019-02-21T10:13:29.703Z,99.90
2019-02-21T10:15:58.140Z,99.90
2019-02-21T10:18:26.583Z,99.90
2019-02-21T10:20:55.034Z,99.90
2019-02-21T10:23:24.346Z,99.90
2019-02-21T10:25:52.898Z,99.90
2019-02-21T10:28:40.668Z,99.90
2019-02-21T10:31:09.199Z,99.90
2019-02-21T10:33:46.601Z,99.90
2019-02-21T10:36:07.807Z,99.90
2019-02-21T10:38:36.239Z,99.90
2019-02-21T10:41:04.731Z,99.90
2019-02-21T10:43:33.183Z,99.90
2019-02-21T10:46:01.704Z,99.90
2019-02-21T10:48:30.223Z,99.90
2019-02-21T10:50:58.669Z,99.80
2019-02-21T10:53:27.111Z,99.60
2019-02-21T10:55:55.539Z,99.20
2019-02-21T10:58:43.315Z,99.20
2019-02-21T11:01:31.075Z,99.20
2019-02-21T11:03:59.531Z,99.10
2019-02-21T11:09:23.335Z,99.30
2019-02-21T11:11:51.778Z,99.40
2019-02-21T11:14:20.295Z,99.00
2019-02-21T11:16:48.719Z,98.70
2019-02-21T11:19:17.236Z,98.30
2019-02-21T11:21:45.667Z,98.20
2019-02-21T11:24:33.470Z,97.70
2019-02-21T11:27:01.884Z,97.30
2019-02-21T11:29:30.348Z,97.10
2019-02-21T11:31:58.807Z,96.90
2019-02-21T11:34:27.263Z,96.70
2019-02-21T11:36:55.766Z,96.80
2019-02-21T11:39:24.325Z,97.00
2019-02-21T11:41:52.772Z,96.30
2019-02-21T11:44:21.200Z,96.00
2019-02-21T11:47:08.997Z,95.90
2019-02-21T11:49:37.447Z,95.70
2019-02-21T11:52:10.125Z,95.40
2019-02-21T11:54:36.084Z,95.50
2019-02-21T11:57:23.881Z,95.70
2019-02-21T11:59:52.328Z,95.60
2019-02-21T12:02:20.755Z,95.60
2019-02-21T12:04:49.207Z,95.80
2019-02-21T12:07:36.987Z,96.10
2019-02-21T12:10:08.684Z,96.00
2019-02-21T12:12:37.134Z,95.50
2019-02-21T12:15:08.638Z,95.40
2019-02-21T12:17:37.249Z,95.70
2019-02-21T12:20:11.835Z,95.90
2019-02-21T12:22:59.680Z,95.90
2019-02-21T12:25:47.463Z,95.70
2019-02-21T12:28:15.895Z,95.80
2019-02-21T12:31:03.683Z,96.00
2019-02-21T12:33:32.131Z,96.10
2019-02-21T12:36:00.672Z,95.80
2019-02-21T12:38:29.214Z,95.90
2019-02-21T12:40:57.643Z,96.10
2019-02-21T12:43:26.093Z,95.70
2019-02-21T12:45:57.599Z,95.70
2019-02-21T12:48:45.392Z,95.30
2019-02-21T12:51:13.822Z,95.30
2019-02-21T12:54:01.600Z,95.30
2019-02-21T12:56:30.043Z,95.30
2019-02-21T12:58:58.485Z,95.00
2019-02-21T13:01:26.942Z,95.10
2019-02-21T13:03:55.379Z,95.20
2019-02-21T13:06:43.168Z,95.40
2019-02-21T13:09:11.595Z,95.40
2019-02-21T13:11:40.048Z,95.20
2019-02-21T13:14:08.467Z,95.30
2019-02-21T13:16:36.920Z,95.70
2019-02-21T13:19:05.356Z,95.50
2019-02-21T13:21:33.788Z,95.40
2019-02-21T13:24:02.250Z,95.60
2019-02-21T13:26:30.708Z,95.20
2019-02-21T13:28:59.136Z,95.10
2019-02-21T13:31:46.930Z,94.80
2019-02-21T13:34:15.430Z,94.90
2019-02-21T13:36:43.884Z,94.90
2019-02-21T13:39:12.327Z,95.00
2019-02-21T13:41:40.753Z,95.20
2019-02-21T13:44:09.195Z,95.00
2019-02-21T13:46:40.842Z,94.90
2019-02-21T13:49:07.799Z,94.70
2019-02-21T13:51:36.244Z,94.60
2019-02-21T13:54:04.671Z,94.70
2019-02-21T13:56:33.123Z,94.40
2019-02-21T13:59:20.929Z,94.10
2019-02-21T14:01:49.355Z,94.00
2019-02-21T14:04:17.775Z,94.10
2019-02-21T14:07:05.564Z,94.10
2019-02-21T14:09:53.359Z,94.20
2019-02-21T14:12:21.788Z,94.20
2019-02-21T14:14:50.303Z,93.60
2019-02-21T14:17:18.727Z,93.50
2019-02-21T14:20:07.612Z,93.30
2019-02-21T14:22:36.115Z,93.30
2019-02-21T14:25:07.174Z,93.20
2019-02-21T14:27:35.599Z,93.30
2019-02-21T14:30:09.834Z,93.40
2019-02-21T14:32:50.163Z,93.30
2019-02-21T14:35:18.763Z,93.30
2019-02-21T14:37:47.295Z,93.60
2019-02-21T14:40:16.676Z,93.80
2019-02-21T14:42:45.119Z,94.00
2019-02-21T14:45:21.858Z,93.90
2019-02-21T14:47:50.316Z,94.00
2019-02-21T14:50:18.765Z,94.20
2019-02-21T14:52:47.272Z,94.40
2019-02-21T14:55:35.060Z,94.70
2019-02-21T14:58:03.515Z,94.80
2019-02-21T15:00:32.009Z,95.10
2019-02-21T15:03:00.446Z,95.10
2019-02-21T15:05:30.167Z,95.30
2019-02-21T15:07:58.623Z,95.40
2019-02-21T15:10:27.048Z,95.50
2019-02-21T15:12:55.503Z,95.50
2019-02-21T15:15:27.558Z,95.30
2019-02-21T15:18:15.347Z,94.80
2019-02-21T15:20:43.771Z,94.50
2019-02-21T15:23:31.563Z,94.50
2019-02-21T15:26:00.010Z,94.20
2019-02-21T15:28:28.479Z,94.60
2019-02-21T15:30:56.960Z,94.80
2019-02-21T15:33:25.418Z,94.80
2019-02-21T15:35:53.903Z,95.00
2019-02-21T15:38:22.352Z,94.80
2019-02-21T15:40:50.856Z,94.70
2019-02-21T15:43:38.636Z,94.80
2019-02-21T15:46:07.486Z,94.80
2019-02-21T15:48:36.268Z,95.30
2019-02-21T15:51:04.695Z,95.60
2019-02-21T15:53:33.155Z,96.00
2019-02-21T15:56:20.959Z,96.30
2019-02-21T15:58:49.460Z,96.70
2019-02-21T16:01:17.889Z,97.20
2019-02-21T16:04:05.679Z,97.80
2019-02-21T16:06:34.109Z,98.30
2019-02-21T16:09:21.998Z,98.80
2019-02-21T16:11:50.420Z,99.10
2019-02-21T16:14:18.916Z,99.40
2019-02-21T16:16:47.817Z,99.50
2019-02-21T16:19:16.268Z,99.60
2019-02-21T16:21:44.762Z,99.70
2019-02-21T16:24:13.237Z,99.80
2019-02-21T16:26:41.671Z,99.90
2019-02-21T16:29:29.484Z,99.90
2019-02-21T16:31:57.901Z,99.90
2019-02-21T16:34:26.327Z,99.90
2019-02-21T16:37:02.176Z,99.90
2019-02-21T16:39:24.959Z,99.90
2019-02-21T16:41:53.484Z,99.90
2019-02-21T16:44:22.004Z,99.90
2019-02-21T16:46:50.462Z,99.90
2019-02-21T16:49:18.915Z,99.90
2019-02-21T16:52:06.714Z,99.90
2019-02-21T16:54:35.231Z,99.90
2019-02-21T16:57:23.024Z,99.90
2019-02-21T17:00:03.958Z,99.90
2019-02-21T17:02:32.413Z,99.90
2019-02-21T17:05:00.917Z,99.90
2019-02-21T17:07:48.704Z,99.90
2019-02-21T17:10:36.492Z,99.90
2019-02-21T17:13:04.915Z,99.90
2019-02-21T17:18:38.362Z,99.90
2019-02-21T17:21:21.070Z,99.90
2019-02-21T17:23:49.716Z,99.90
2019-02-21T17:26:18.236Z,99.90
2019-02-21T17:28:46.751Z,99.90
2019-02-21T17:31:15.185Z,99.90
2019-02-21T17:33:43.639Z,99.90
2019-02-21T17:39:21.205Z,99.90
2019-02-21T17:42:02.642Z,99.90
2019-02-21T17:44:31.916Z,99.90
2019-02-21T17:47:00.635Z,99.90
2019-02-21T17:49:29.079Z,99.90
2019-02-21T17:51:57.541Z,99.90
2019-02-21T17:54:27.623Z,99.90
2019-02-21T17:57:08.130Z,99.90
2019-02-21T17:59:36.581Z,99.90
2019-02-21T18:02:24.359Z,99.90
2019-02-21T18:05:00.040Z,99.90
2019-02-21T18:07:36.028Z,99.90
2019-02-21T18:09:58.664Z,99.90
2019-02-21T18:12:27.112Z,99.90
2019-02-21T18:14:55.636Z,99.90
2019-02-21T18:17:26.408Z,99.90
2019-02-21T18:19:54.243Z,99.90
2019-02-21T18:22:22.782Z,99.90
2019-02-21T18:25:11.919Z,99.90
2019-02-21T18:27:40.369Z,99.90
2019-02-21T18:30:17.007Z,99.90
2019-02-21T18:32:45.791Z,99.90
2019-02-21T18:35:33.587Z,99.90
2019-02-21T18:38:02.044Z,99.90
2019-02-21T18:40:30.551Z,99.90
2019-02-21T18:43:00.701Z,99.90
2019-02-21T18:45:48.463Z,99.90
2019-02-21T18:48:20.716Z,99.90
2019-02-21T18:51:08.519Z,99.90
2019-02-21T18:53:36.945Z,99.90
2019-02-21T18:56:05.540Z,99.90
2019-02-21T18:58:33.980Z,99.90
2019-02-21T19:01:02.575Z,99.90
2019-02-21T19:03:50.334Z,99.90
2019-02-21T19:06:31.179Z,99.90
2019-02-21T19:08:59.607Z,99.90
2019-02-21T19:11:47.387Z,99.90
2019-02-21T19:14:35.153Z,99.90
2019-02-21T19:17:15.396Z,99.90
2019-02-21T19:19:43.907Z,99.90
2019-02-21T19:22:12.403Z,99.90
2019-02-21T19:24:40.840Z,99.90
2019-02-21T19:27:09.268Z,99.90
2019-02-21T19:29:37.719Z,99.90
2019-02-21T19:32:25.479Z,99.90
2019-02-21T19:34:54.058Z,99.90
2019-02-21T19:37:22.483Z,99.90
2019-02-21T19:39:50.985Z,99.90
2019-02-21T19:42:19.440Z,99.90
2019-02-21T19:44:47.889Z,99.90
2019-02-21T19:47:16.336Z,99.90
2019-02-21T19:49:44.768Z,99.90
2019-02-21T19:52:13.494Z,99.90
2019-02-21T19:54:41.990Z,99.90
2019-02-21T19:57:10.446Z,99.90
2019-02-21T19:59:42.050Z,99.90
2019-02-21T20:02:10.615Z,99.90
2019-02-21T20:04:58.474Z,99.90
2019-02-21T20:07:27.182Z,99.90
2019-02-21T20:09:56.236Z,99.90
2019-02-21T20:12:24.974Z,99.90
2019-02-21T20:14:55.560Z,99.90
2019-02-21T20:17:24.137Z,99.90
2019-02-21T20:19:52.851Z,99.90
2019-02-21T20:22:21.541Z,99.90
2019-02-21T20:24:51.675Z,99.90
2019-02-21T20:27:20.399Z,99.90
2019-02-21T20:29:48.912Z,99.90
2019-02-21T20:32:17.630Z,99.90
2019-02-21T20:34:46.272Z,99.90
2019-02-21T20:37:16.191Z,99.90
2019-02-21T20:39:45.597Z,99.90
2019-02-21T20:42:19.273Z,99.90
2019-02-21T20:44:47.799Z,99.90
2019-02-21T20:47:16.349Z,99.90
2019-02-21T20:49:44.872Z,99.90
2019-02-21T20:52:14.094Z,99.90
2019-02-21T20:54:42.807Z,99.90
2019-02-21T20:57:11.676Z,99.90
2019-02-21T20:59:59.540Z,99.90
2019-02-21T21:02:28.083Z,99.90
2019-02-21T21:04:56.618Z,99.90
2019-02-21T21:07:25.560Z,99.90
2019-02-21T21:10:15.211Z,99.90
2019-02-21T21:12:43.791Z,99.90
2019-02-21T21:15:15.460Z,99.90
2019-02-21T21:17:56.479Z,99.90
2019-02-21T21:20:37.240Z,99.90
2019-02-21T21:23:06.125Z,99.90
2019-02-21T21:25:53.915Z,99.90
2019-02-21T21:28:22.355Z,99.90
2019-02-21T21:31:10.143Z,99.90
2019-02-21T21:33:38.577Z,99.90
2019-02-21T21:36:09.980Z,99.90
2019-02-21T21:38:38.527Z,99.90
2019-02-21T21:41:14.372Z,99.90
2019-02-21T21:43:42.807Z,99.90
2019-02-21T21:46:11.255Z,99.90
2019-02-21T21:48:39.710Z,99.90
2019-02-21T21:51:27.536Z,99.90
2019-02-21T21:53:55.964Z,99.90
2019-02-21T21:56:24.393Z,99.90
2019-02-21T21:58:52.838Z,99.90
2019-02-21T22:01:24.307Z,99.90
2019-02-21T22:03:52.770Z,99.90
2019-02-21T22:06:40.587Z,99.90
2019-02-21T22:09:28.384Z,99.90
2019-02-21T22:12:16.168Z,99.90
2019-02-21T22:15:05.131Z,99.90
2019-02-21T22:17:33.587Z,99.90
2019-02-21T22:20:21.355Z,99.90
2019-02-21T22:22:49.811Z,99.90
2019-02-21T22:25:37.612Z,99.90
2019-02-21T22:28:06.071Z,99.90
2019-02-21T22:30:34.763Z,99.90
2019-02-21T22:33:03.227Z,99.90
2019-02-21T22:35:31.703Z,99.90
2019-02-21T22:38:00.155Z,99.90
2019-02-21T22:40:28.593Z,99.90
2019-02-21T22:42:57.203Z,99.90
2019-02-21T22:45:44.975Z,99.90
2019-02-21T22:48:13.431Z,99.90
2019-02-21T22:50:41.860Z,99.90
2019-02-21T22:53:10.385Z,99.90
2019-02-21T22:55:38.847Z,99.90
2019-02-21T22:58:07.297Z,99.90
2019-02-21T23:00:49.149Z,99.90
2019-02-21T23:03:17.725Z,99.90
2019-02-21T23:06:23.812Z,99.90
2019-02-21T23:09:05.524Z,99.90
2019-02-21T23:11:46.493Z,99.90
2019-02-21T23:14:15.004Z,99.90
2019-02-21T23:16:43.562Z,99.90
2019-02-21T23:19:12.024Z,99.90
2019-02-21T23:21:59.786Z,99.90
2019-02-21T23:24:40.924Z,99.90
2019-02-21T23:27:21.462Z,99.90
2019-02-21T23:29:49.945Z,99.90
2019-02-21T23:32:18.391Z,99.90
2019-02-21T23:35:06.624Z,99.90
2019-02-21T23:37:47.223Z,99.90
2019-02-21T23:40:15.659Z,99.90
2019-02-21T23:42:44.119Z,99.90
2019-02-21T23:45:12.607Z,99.90
2019-02-21T23:47:49.443Z,99.90
2019-02-21T23:50:30.571Z,99.90
2019-02-21T23:52:58.995Z,99.90
2019-02-21T23:55:46.783Z,99.90
2019-02-21T23:58:27.429Z,99.90
